sensor_id;sensor_type;location;lat;lon;timestamp;temperature;humidity
4651;DHT22;2338;49.602;8.722;2023-11-21T00:00:34;10.40;99.90
4651;DHT22;2338;49.602;8.722;2023-11-21T00:03:20;10.40;99.90
4651;DHT22;2338;49.602;8.722;2023-11-21T00:06:07;10.40;99.90
4651;DHT22;2338;49.602;8.722;2023-11-21T00:08:55;10.40;99.90
4651;DHT22;2338;49.602;8.722;2023-11-21T00:11:40;10.40;99.90
4651;DHT22;2338;49.602;8.722;2023-11-21T00:14:26;10.30;99.90
4651;DHT22;2338;49.602;8.722;2023-11-21T00:17:12;10.30;99.90
4651;DHT22;2338;49.602;8.722;2023-11-21T00:19:57;10.40;99.90
4651;DHT22;2338;49.602;8.722;2023-11-21T00:23:08;10.40;99.90
4651;DHT22;2338;49.602;8.722;2023-11-21T00:25:56;10.40;99.90
4651;DHT22;2338;49.602;8.722;2023-11-21T00:29:20;10.40;99.90
4651;DHT22;2338;49.602;8.722;2023-11-21T00:32:17;10.40;99.90
4651;DHT22;2338;49.602;8.722;2023-11-21T00:35:18;10.40;99.90
4651;DHT22;2338;49.602;8.722;2023-11-21T00:41:47;10.40;99.90
4651;DHT22;2338;49.602;8.722;2023-11-21T00:44:33;10.40;99.90
4651;DHT22;2338;49.602;8.722;2023-11-21T00:47:19;10.40;99.90
4651;DHT22;2338;49.602;8.722;2023-11-21T00:50:07;10.30;99.90
4651;DHT22;2338;49.602;8.722;2023-11-21T00:53:04;10.30;99.90
4651;DHT22;2338;49.602;8.722;2023-11-21T00:55:55;10.30;99.90
4651;DHT22;2338;49.602;8.722;2023-11-21T00:58:44;10.30;99.90
4651;DHT22;2338;49.602;8.722;2023-11-21T01:02:04;10.30;99.90
4651;DHT22;2338;49.602;8.722;2023-11-21T01:05:08;10.30;99.90
4651;DHT22;2338;49.602;8.722;2023-11-21T01:08:36;10.30;99.90
4651;DHT22;2338;49.602;8.722;2023-11-21T01:11:46;10.20;99.90
4651;DHT22;2338;49.602;8.722;2023-11-21T01:14:37;10.20;99.90
4651;DHT22;2338;49.602;8.722;2023-11-21T01:25:35;10.30;99.90
4651;DHT22;2338;49.602;8.722;2023-11-21T01:32:44;10.40;99.90
4651;DHT22;2338;49.602;8.722;2023-11-21T01:36:06;10.40;99.90
4651;DHT22;2338;49.602;8.722;2023-11-21T01:39:09;10.40;99.90
4651;DHT22;2338;49.602;8.722;2023-11-21T01:41:59;10.40;99.90
4651;DHT22;2338;49.602;8.722;2023-11-21T01:44:48;10.50;99.90
4651;DHT22;2338;49.602;8.722;2023-11-21T01:51:17;10.40;99.90
4651;DHT22;2338;49.602;8.722;2023-11-21T01:54:07;10.40;99.90
4651;DHT22;2338;49.602;8.722;2023-11-21T01:56:53;10.40;99.90
4651;DHT22;2338;49.602;8.722;2023-11-21T01:59:52;10.40;99.90
4651;DHT22;2338;49.602;8.722;2023-11-21T02:02:48;10.40;99.90
4651;DHT22;2338;49.602;8.722;2023-11-21T02:05:47;10.40;99.90
4651;DHT22;2338;49.602;8.722;2023-11-21T02:15:46;10.50;99.90
4651;DHT22;2338;49.602;8.722;2023-11-21T02:29:37;10.40;99.90
4651;DHT22;2338;49.602;8.722;2023-11-21T02:35:48;10.40;99.90
4651;DHT22;2338;49.602;8.722;2023-11-21T02:43:32;10.40;99.90
4651;DHT22;2338;49.602;8.722;2023-11-21T02:45:55;10.40;99.90
4651;DHT22;2338;49.602;8.722;2023-11-21T02:49:24;10.40;99.90
4651;DHT22;2338;49.602;8.722;2023-11-21T02:52:40;10.30;99.90
4651;DHT22;2338;49.602;8.722;2023-11-21T03:02:24;10.40;99.90
4651;DHT22;2338;49.602;8.722;2023-11-21T03:05:09;10.40;99.90
4651;DHT22;2338;49.602;8.722;2023-11-21T03:07:55;10.50;99.90
4651;DHT22;2338;49.602;8.722;2023-11-21T03:10:41;10.50;99.90
4651;DHT22;2338;49.602;8.722;2023-11-21T03:14:19;10.50;99.90
4651;DHT22;2338;49.602;8.722;2023-11-21T03:17:47;10.50;99.90
4651;DHT22;2338;49.602;8.722;2023-11-21T03:24:04;10.50;99.90
4651;DHT22;2338;49.602;8.722;2023-11-21T03:26:50;10.50;99.90
4651;DHT22;2338;49.602;8.722;2023-11-21T03:29:38;10.50;99.90
4651;DHT22;2338;49.602;8.722;2023-11-21T03:36:16;10.50;99.90
4651;DHT22;2338;49.602;8.722;2023-11-21T03:39:02;10.40;99.90
4651;DHT22;2338;49.602;8.722;2023-11-21T03:41:49;10.40;99.90
4651;DHT22;2338;49.602;8.722;2023-11-21T03:45:00;10.50;99.90
4651;DHT22;2338;49.602;8.722;2023-11-21T03:47:59;10.50;99.90
4651;DHT22;2338;49.602;8.722;2023-11-21T03:54:29;10.40;99.90
4651;DHT22;2338;49.602;8.722;2023-11-21T03:57:16;10.40;99.90
4651;DHT22;2338;49.602;8.722;2023-11-21T04:00:48;10.40;99.90
4651;DHT22;2338;49.602;8.722;2023-11-21T04:03:46;10.40;99.90
4651;DHT22;2338;49.602;8.722;2023-11-21T04:06:40;10.40;99.90
4651;DHT22;2338;49.602;8.722;2023-11-21T04:09:43;10.30;99.90
4651;DHT22;2338;49.602;8.722;2023-11-21T04:12:49;10.30;99.90
4651;DHT22;2338;49.602;8.722;2023-11-21T04:16:21;10.30;99.90
4651;DHT22;2338;49.602;8.722;2023-11-21T04:22:35;10.20;99.90
4651;DHT22;2338;49.602;8.722;2023-11-21T04:25:24;10.20;99.90
4651;DHT22;2338;49.602;8.722;2023-11-21T04:28:37;10.20;99.90
4651;DHT22;2338;49.602;8.722;2023-11-21T04:31:22;10.20;99.90
4651;DHT22;2338;49.602;8.722;2023-11-21T04:34:08;10.30;99.90
4651;DHT22;2338;49.602;8.722;2023-11-21T04:40:29;10.40;99.90
4651;DHT22;2338;49.602;8.722;2023-11-21T04:44:56;10.40;99.90
4651;DHT22;2338;49.602;8.722;2023-11-21T04:47:13;10.30;99.90
4651;DHT22;2338;49.602;8.722;2023-11-21T04:49:59;10.30;99.90
4651;DHT22;2338;49.602;8.722;2023-11-21T04:52:45;10.40;99.90
4651;DHT22;2338;49.602;8.722;2023-11-21T04:55:40;10.40;99.90
4651;DHT22;2338;49.602;8.722;2023-11-21T04:58:26;10.40;99.90
4651;DHT22;2338;49.602;8.722;2023-11-21T05:01:17;10.40;99.90
4651;DHT22;2338;49.602;8.722;2023-11-21T05:04:22;10.50;99.90
4651;DHT22;2338;49.602;8.722;2023-11-21T05:07:44;10.50;99.90
4651;DHT22;2338;49.602;8.722;2023-11-21T05:11:13;10.50;99.90
4651;DHT22;2338;49.602;8.722;2023-11-21T05:14:22;10.50;99.90
4651;DHT22;2338;49.602;8.722;2023-11-21T05:25:08;10.40;99.90
4651;DHT22;2338;49.602;8.722;2023-11-21T05:28:12;10.40;99.90
4651;DHT22;2338;49.602;8.722;2023-11-21T05:31:01;10.40;99.90
4651;DHT22;2338;49.602;8.722;2023-11-21T05:33:47;10.50;99.90
4651;DHT22;2338;49.602;8.722;2023-11-21T05:36:33;10.40;99.90
4651;DHT22;2338;49.602;8.722;2023-11-21T05:39:18;10.50;99.90
4651;DHT22;2338;49.602;8.722;2023-11-21T05:42:46;10.50;99.90
4651;DHT22;2338;49.602;8.722;2023-11-21T05:49:19;10.40;99.90
4651;DHT22;2338;49.602;8.722;2023-11-21T05:52:06;10.40;99.90
4651;DHT22;2338;49.602;8.722;2023-11-21T05:54:52;10.40;99.90
4651;DHT22;2338;49.602;8.722;2023-11-21T05:57:38;10.40;99.90
4651;DHT22;2338;49.602;8.722;2023-11-21T06:00:29;10.40;99.90
4651;DHT22;2338;49.602;8.722;2023-11-21T06:03:29;10.50;99.90
4651;DHT22;2338;49.602;8.722;2023-11-21T06:06:16;10.50;99.90
4651;DHT22;2338;49.602;8.722;2023-11-21T06:09:39;10.50;99.90
4651;DHT22;2338;49.602;8.722;2023-11-21T06:12:25;10.50;99.90
4651;DHT22;2338;49.602;8.722;2023-11-21T06:15:12;10.50;99.90
4651;DHT22;2338;49.602;8.722;2023-11-21T06:17:58;10.60;99.90
4651;DHT22;2338;49.602;8.722;2023-11-21T06:20:44;10.60;99.90
4651;DHT22;2338;49.602;8.722;2023-11-21T06:23:31;10.60;99.90
4651;DHT22;2338;49.602;8.722;2023-11-21T06:26:17;10.50;99.90
4651;DHT22;2338;49.602;8.722;2023-11-21T06:29:03;10.50;99.90
4651;DHT22;2338;49.602;8.722;2023-11-21T06:32:31;10.60;99.90
4651;DHT22;2338;49.602;8.722;2023-11-21T06:35:49;10.50;99.90
4651;DHT22;2338;49.602;8.722;2023-11-21T06:39:18;10.50;99.90
4651;DHT22;2338;49.602;8.722;2023-11-21T06:42:26;10.50;99.90
4651;DHT22;2338;49.602;8.722;2023-11-21T06:45:40;10.50;99.90
4651;DHT22;2338;49.602;8.722;2023-11-21T06:48:38;10.50;99.90
4651;DHT22;2338;49.602;8.722;2023-11-21T06:51:26;10.50;99.90
4651;DHT22;2338;49.602;8.722;2023-11-21T06:54:13;10.40;99.90
4651;DHT22;2338;49.602;8.722;2023-11-21T06:57:02;10.50;99.90
4651;DHT22;2338;49.602;8.722;2023-11-21T07:00:14;10.50;99.90
4651;DHT22;2338;49.602;8.722;2023-11-21T07:03:10;10.50;99.90
4651;DHT22;2338;49.602;8.722;2023-11-21T07:05:58;10.60;99.90
4651;DHT22;2338;49.602;8.722;2023-11-21T07:08:43;10.60;99.90
4651;DHT22;2338;49.602;8.722;2023-11-21T07:11:30;10.60;99.90
4651;DHT22;2338;49.602;8.722;2023-11-21T07:14:17;10.60;99.90
4651;DHT22;2338;49.602;8.722;2023-11-21T07:17:03;10.60;99.90
4651;DHT22;2338;49.602;8.722;2023-11-21T07:19:50;10.70;99.90
4651;DHT22;2338;49.602;8.722;2023-11-21T07:22:43;10.70;99.90
4651;DHT22;2338;49.602;8.722;2023-11-21T07:25:29;10.70;99.90
4651;DHT22;2338;49.602;8.722;2023-11-21T07:28:16;10.70;99.90
4651;DHT22;2338;49.602;8.722;2023-11-21T07:31:03;10.60;99.90
4651;DHT22;2338;49.602;8.722;2023-11-21T07:33:48;10.60;99.90
4651;DHT22;2338;49.602;8.722;2023-11-21T07:36:35;10.70;99.90
4651;DHT22;2338;49.602;8.722;2023-11-21T07:42:53;10.70;99.90
4651;DHT22;2338;49.602;8.722;2023-11-21T07:45:42;10.80;99.90
4651;DHT22;2338;49.602;8.722;2023-11-21T07:48:29;10.80;99.90
4651;DHT22;2338;49.602;8.722;2023-11-21T07:51:14;10.80;99.90
4651;DHT22;2338;49.602;8.722;2023-11-21T07:54:00;10.80;99.90
4651;DHT22;2338;49.602;8.722;2023-11-21T07:56:46;10.70;99.90
4651;DHT22;2338;49.602;8.722;2023-11-21T07:59:31;10.70;99.90
4651;DHT22;2338;49.602;8.722;2023-11-21T08:02:23;10.70;99.90
4651;DHT22;2338;49.602;8.722;2023-11-21T08:05:10;10.70;99.90
4651;DHT22;2338;49.602;8.722;2023-11-21T08:07:56;10.70;99.90
4651;DHT22;2338;49.602;8.722;2023-11-21T08:11:03;10.70;99.90
4651;DHT22;2338;49.602;8.722;2023-11-21T08:13:49;10.80;99.90
4651;DHT22;2338;49.602;8.722;2023-11-21T08:16:47;10.80;99.90
4651;DHT22;2338;49.602;8.722;2023-11-21T08:19:34;10.80;99.90
4651;DHT22;2338;49.602;8.722;2023-11-21T08:22:20;10.80;99.90
4651;DHT22;2338;49.602;8.722;2023-11-21T08:25:07;10.80;99.90
4651;DHT22;2338;49.602;8.722;2023-11-21T08:27:53;10.80;99.90
4651;DHT22;2338;49.602;8.722;2023-11-21T08:30:39;10.80;99.90
4651;DHT22;2338;49.602;8.722;2023-11-21T08:33:25;10.80;99.90
4651;DHT22;2338;49.602;8.722;2023-11-21T08:36:13;10.90;99.90
4651;DHT22;2338;49.602;8.722;2023-11-21T08:38:59;10.80;99.90
4651;DHT22;2338;49.602;8.722;2023-11-21T08:41:45;10.80;99.90
4651;DHT22;2338;49.602;8.722;2023-11-21T08:44:31;10.80;99.90
4651;DHT22;2338;49.602;8.722;2023-11-21T08:47:17;10.80;99.90
4651;DHT22;2338;49.602;8.722;2023-11-21T08:50:03;10.80;99.90
4651;DHT22;2338;49.602;8.722;2023-11-21T08:52:51;10.80;99.90
4651;DHT22;2338;49.602;8.722;2023-11-21T08:55:37;10.80;99.90
4651;DHT22;2338;49.602;8.722;2023-11-21T08:58:31;10.90;99.90
4651;DHT22;2338;49.602;8.722;2023-11-21T09:01:17;10.90;99.90
4651;DHT22;2338;49.602;8.722;2023-11-21T09:04:03;11.00;99.90
4651;DHT22;2338;49.602;8.722;2023-11-21T09:06:49;11.00;99.90
4651;DHT22;2338;49.602;8.722;2023-11-21T09:09:36;11.10;99.90
4651;DHT22;2338;49.602;8.722;2023-11-21T09:12:22;11.10;99.90
4651;DHT22;2338;49.602;8.722;2023-11-21T09:15:09;11.10;99.90
4651;DHT22;2338;49.602;8.722;2023-11-21T09:17:56;11.10;99.90
4651;DHT22;2338;49.602;8.722;2023-11-21T09:20:41;11.20;99.90
4651;DHT22;2338;49.602;8.722;2023-11-21T09:23:45;11.20;99.90
4651;DHT22;2338;49.602;8.722;2023-11-21T09:26:41;11.20;99.90
4651;DHT22;2338;49.602;8.722;2023-11-21T09:29:31;11.20;99.90
4651;DHT22;2338;49.602;8.722;2023-11-21T09:32:17;11.20;99.90
4651;DHT22;2338;49.602;8.722;2023-11-21T09:35:03;11.20;99.90
4651;DHT22;2338;49.602;8.722;2023-11-21T09:37:49;11.20;99.90
4651;DHT22;2338;49.602;8.722;2023-11-21T09:40:36;11.20;99.90
4651;DHT22;2338;49.602;8.722;2023-11-21T09:43:25;11.20;99.90
4651;DHT22;2338;49.602;8.722;2023-11-21T09:46:14;11.20;99.90
4651;DHT22;2338;49.602;8.722;2023-11-21T09:49:04;11.20;99.90
4651;DHT22;2338;49.602;8.722;2023-11-21T09:51:55;11.10;99.90
4651;DHT22;2338;49.602;8.722;2023-11-21T09:54:41;11.10;99.90
4651;DHT22;2338;49.602;8.722;2023-11-21T09:57:47;11.10;99.90
4651;DHT22;2338;49.602;8.722;2023-11-21T10:00:36;11.00;99.90
4651;DHT22;2338;49.602;8.722;2023-11-21T10:03:21;11.10;99.90
4651;DHT22;2338;49.602;8.722;2023-11-21T10:06:12;11.00;99.90
4651;DHT22;2338;49.602;8.722;2023-11-21T10:09:14;11.10;99.90
4651;DHT22;2338;49.602;8.722;2023-11-21T10:12:01;11.10;99.90
4651;DHT22;2338;49.602;8.722;2023-11-21T10:14:48;11.10;99.90
4651;DHT22;2338;49.602;8.722;2023-11-21T10:17:38;11.10;99.90
4651;DHT22;2338;49.602;8.722;2023-11-21T10:20:27;11.10;99.90
4651;DHT22;2338;49.602;8.722;2023-11-21T10:23:14;11.20;99.90
4651;DHT22;2338;49.602;8.722;2023-11-21T10:26:20;11.10;99.90
4651;DHT22;2338;49.602;8.722;2023-11-21T10:29:08;11.20;99.90
4651;DHT22;2338;49.602;8.722;2023-11-21T10:31:56;11.10;99.90
4651;DHT22;2338;49.602;8.722;2023-11-21T10:34:55;11.00;99.90
4651;DHT22;2338;49.602;8.722;2023-11-21T10:37:41;11.10;99.90
4651;DHT22;2338;49.602;8.722;2023-11-21T10:40:29;11.10;99.90
4651;DHT22;2338;49.602;8.722;2023-11-21T10:43:15;11.10;99.90
4651;DHT22;2338;49.602;8.722;2023-11-21T10:46:00;11.10;99.90
4651;DHT22;2338;49.602;8.722;2023-11-21T10:48:52;11.20;99.90
4651;DHT22;2338;49.602;8.722;2023-11-21T10:51:43;11.10;99.90
4651;DHT22;2338;49.602;8.722;2023-11-21T10:54:37;11.10;99.90
4651;DHT22;2338;49.602;8.722;2023-11-21T10:57:45;11.20;99.90
4651;DHT22;2338;49.602;8.722;2023-11-21T11:00:33;11.20;99.90
4651;DHT22;2338;49.602;8.722;2023-11-21T11:03:19;11.20;99.90
4651;DHT22;2338;49.602;8.722;2023-11-21T11:06:05;11.30;99.90
4651;DHT22;2338;49.602;8.722;2023-11-21T11:08:56;11.30;99.90
4651;DHT22;2338;49.602;8.722;2023-11-21T11:11:42;11.40;99.90
4651;DHT22;2338;49.602;8.722;2023-11-21T11:14:29;11.40;99.90
4651;DHT22;2338;49.602;8.722;2023-11-21T11:17:17;11.50;99.90
4651;DHT22;2338;49.602;8.722;2023-11-21T11:20:05;11.50;99.90
4651;DHT22;2338;49.602;8.722;2023-11-21T11:23:07;11.50;99.90
4651;DHT22;2338;49.602;8.722;2023-11-21T11:26:07;11.50;99.90
4651;DHT22;2338;49.602;8.722;2023-11-21T11:29:00;11.50;99.90
4651;DHT22;2338;49.602;8.722;2023-11-21T11:32:00;11.60;99.90
4651;DHT22;2338;49.602;8.722;2023-11-21T11:34:56;11.60;99.90
4651;DHT22;2338;49.602;8.722;2023-11-21T11:37:44;11.60;99.90
4651;DHT22;2338;49.602;8.722;2023-11-21T11:40:40;11.50;99.90
4651;DHT22;2338;49.602;8.722;2023-11-21T11:43:28;11.50;99.90
4651;DHT22;2338;49.602;8.722;2023-11-21T11:46:15;11.50;99.90
4651;DHT22;2338;49.602;8.722;2023-11-21T11:49:02;11.50;99.90
4651;DHT22;2338;49.602;8.722;2023-11-21T11:51:48;11.50;99.90
4651;DHT22;2338;49.602;8.722;2023-11-21T11:54:56;11.50;99.90
4651;DHT22;2338;49.602;8.722;2023-11-21T11:57:47;11.50;99.90
4651;DHT22;2338;49.602;8.722;2023-11-21T12:00:35;11.60;99.90
4651;DHT22;2338;49.602;8.722;2023-11-21T12:03:24;11.60;99.90
4651;DHT22;2338;49.602;8.722;2023-11-21T12:06:10;11.70;99.90
4651;DHT22;2338;49.602;8.722;2023-11-21T12:09:01;11.70;99.90
4651;DHT22;2338;49.602;8.722;2023-11-21T12:11:49;11.70;99.90
4651;DHT22;2338;49.602;8.722;2023-11-21T12:14:38;11.60;99.90
4651;DHT22;2338;49.602;8.722;2023-11-21T12:17:28;11.60;99.90
4651;DHT22;2338;49.602;8.722;2023-11-21T12:20:14;11.50;99.90
4651;DHT22;2338;49.602;8.722;2023-11-21T12:23:01;11.50;99.90
4651;DHT22;2338;49.602;8.722;2023-11-21T12:25:47;11.70;99.90
4651;DHT22;2338;49.602;8.722;2023-11-21T12:28:51;12.10;99.90
4651;DHT22;2338;49.602;8.722;2023-11-21T12:31:58;12.60;99.90
4651;DHT22;2338;49.602;8.722;2023-11-21T12:34:48;12.90;99.90
4651;DHT22;2338;49.602;8.722;2023-11-21T12:37:41;13.20;99.90
4651;DHT22;2338;49.602;8.722;2023-11-21T12:40:34;13.50;99.90
4651;DHT22;2338;49.602;8.722;2023-11-21T12:43:20;14.30;99.90
4651;DHT22;2338;49.602;8.722;2023-11-21T12:46:06;14.80;99.90
4651;DHT22;2338;49.602;8.722;2023-11-21T12:48:53;15.00;99.90
4651;DHT22;2338;49.602;8.722;2023-11-21T12:51:42;15.00;99.90
4651;DHT22;2338;49.602;8.722;2023-11-21T12:54:28;15.10;99.90
4651;DHT22;2338;49.602;8.722;2023-11-21T12:57:14;15.20;99.90
4651;DHT22;2338;49.602;8.722;2023-11-21T13:00:00;15.10;99.90
4651;DHT22;2338;49.602;8.722;2023-11-21T13:02:55;14.70;99.90
4651;DHT22;2338;49.602;8.722;2023-11-21T13:05:44;14.20;99.90
4651;DHT22;2338;49.602;8.722;2023-11-21T13:08:31;13.90;99.90
4651;DHT22;2338;49.602;8.722;2023-11-21T13:11:17;13.80;99.90
4651;DHT22;2338;49.602;8.722;2023-11-21T13:14:03;13.50;99.90
4651;DHT22;2338;49.602;8.722;2023-11-21T13:16:49;13.20;99.90
4651;DHT22;2338;49.602;8.722;2023-11-21T13:19:37;13.10;99.90
4651;DHT22;2338;49.602;8.722;2023-11-21T13:22:48;13.00;99.90
4651;DHT22;2338;49.602;8.722;2023-11-21T13:25:43;12.80;99.90
4651;DHT22;2338;49.602;8.722;2023-11-21T13:28:39;12.60;99.90
4651;DHT22;2338;49.602;8.722;2023-11-21T13:31:30;12.50;99.90
4651;DHT22;2338;49.602;8.722;2023-11-21T13:34:44;12.40;99.90
4651;DHT22;2338;49.602;8.722;2023-11-21T13:37:31;12.40;99.90
4651;DHT22;2338;49.602;8.722;2023-11-21T13:40:18;12.40;99.90
4651;DHT22;2338;49.602;8.722;2023-11-21T13:43:37;12.40;99.90
4651;DHT22;2338;49.602;8.722;2023-11-21T13:46:23;12.40;99.90
4651;DHT22;2338;49.602;8.722;2023-11-21T13:49:08;12.30;99.90
4651;DHT22;2338;49.602;8.722;2023-11-21T13:51:54;12.40;99.90
4651;DHT22;2338;49.602;8.722;2023-11-21T13:54:40;12.40;99.90
4651;DHT22;2338;49.602;8.722;2023-11-21T13:57:26;12.40;99.90
4651;DHT22;2338;49.602;8.722;2023-11-21T14:00:15;12.30;99.90
4651;DHT22;2338;49.602;8.722;2023-11-21T14:03:25;12.20;99.90
4651;DHT22;2338;49.602;8.722;2023-11-21T14:06:23;12.20;99.90
4651;DHT22;2338;49.602;8.722;2023-11-21T14:09:17;12.10;99.90
4651;DHT22;2338;49.602;8.722;2023-11-21T14:12:06;12.10;99.90
4651;DHT22;2338;49.602;8.722;2023-11-21T14:14:53;12.10;99.90
4651;DHT22;2338;49.602;8.722;2023-11-21T14:17:40;12.10;99.90
4651;DHT22;2338;49.602;8.722;2023-11-21T14:20:26;12.00;99.90
4651;DHT22;2338;49.602;8.722;2023-11-21T14:23:13;12.00;99.90
4651;DHT22;2338;49.602;8.722;2023-11-21T14:25:59;12.00;99.90
4651;DHT22;2338;49.602;8.722;2023-11-21T14:28:45;12.00;99.90
4651;DHT22;2338;49.602;8.722;2023-11-21T14:31:33;11.90;99.90
4651;DHT22;2338;49.602;8.722;2023-11-21T14:34:20;11.90;99.90
4651;DHT22;2338;49.602;8.722;2023-11-21T14:37:06;11.90;99.90
4651;DHT22;2338;49.602;8.722;2023-11-21T14:39:51;11.90;99.90
4651;DHT22;2338;49.602;8.722;2023-11-21T14:42:39;11.90;99.90
4651;DHT22;2338;49.602;8.722;2023-11-21T14:45:26;11.80;99.90
4651;DHT22;2338;49.602;8.722;2023-11-21T14:48:13;11.80;99.90
4651;DHT22;2338;49.602;8.722;2023-11-21T14:51:20;11.80;99.90
4651;DHT22;2338;49.602;8.722;2023-11-21T14:54:35;11.70;99.90
4651;DHT22;2338;49.602;8.722;2023-11-21T14:57:31;11.60;99.90
4651;DHT22;2338;49.602;8.722;2023-11-21T15:00:16;11.60;99.90
4651;DHT22;2338;49.602;8.722;2023-11-21T15:03:11;11.50;99.90
4651;DHT22;2338;49.602;8.722;2023-11-21T15:06:10;11.50;99.90
4651;DHT22;2338;49.602;8.722;2023-11-21T15:09:10;11.40;99.90
4651;DHT22;2338;49.602;8.722;2023-11-21T15:12:23;11.40;99.90
4651;DHT22;2338;49.602;8.722;2023-11-21T15:15:11;11.50;99.90
4651;DHT22;2338;49.602;8.722;2023-11-21T15:17:58;11.40;99.90
4651;DHT22;2338;49.602;8.722;2023-11-21T15:20:45;11.40;99.90
4651;DHT22;2338;49.602;8.722;2023-11-21T15:23:31;11.40;99.90
4651;DHT22;2338;49.602;8.722;2023-11-21T15:26:19;11.30;99.90
4651;DHT22;2338;49.602;8.722;2023-11-21T15:29:06;11.30;99.90
4651;DHT22;2338;49.602;8.722;2023-11-21T15:31:52;11.30;99.90
4651;DHT22;2338;49.602;8.722;2023-11-21T15:34:40;11.30;99.90
4651;DHT22;2338;49.602;8.722;2023-11-21T15:37:27;11.30;99.90
4651;DHT22;2338;49.602;8.722;2023-11-21T15:40:13;11.20;99.90
4651;DHT22;2338;49.602;8.722;2023-11-21T15:43:00;11.10;99.90
4651;DHT22;2338;49.602;8.722;2023-11-21T15:45:47;11.10;99.90
4651;DHT22;2338;49.602;8.722;2023-11-21T15:48:33;11.10;99.90
4651;DHT22;2338;49.602;8.722;2023-11-21T15:51:19;11.00;99.90
4651;DHT22;2338;49.602;8.722;2023-11-21T15:54:06;10.90;99.90
4651;DHT22;2338;49.602;8.722;2023-11-21T15:56:54;10.90;99.90
4651;DHT22;2338;49.602;8.722;2023-11-21T15:59:41;10.90;99.90
4651;DHT22;2338;49.602;8.722;2023-11-21T16:02:29;10.90;99.90
4651;DHT22;2338;49.602;8.722;2023-11-21T16:05:15;10.80;99.90
4651;DHT22;2338;49.602;8.722;2023-11-21T16:08:02;10.80;99.90
4651;DHT22;2338;49.602;8.722;2023-11-21T16:10:49;10.80;99.90
4651;DHT22;2338;49.602;8.722;2023-11-21T16:13:34;10.70;99.90
4651;DHT22;2338;49.602;8.722;2023-11-21T16:16:21;10.80;99.90
4651;DHT22;2338;49.602;8.722;2023-11-21T16:19:07;10.80;99.90
4651;DHT22;2338;49.602;8.722;2023-11-21T16:21:53;10.80;99.90
4651;DHT22;2338;49.602;8.722;2023-11-21T16:24:38;10.80;99.90
4651;DHT22;2338;49.602;8.722;2023-11-21T16:27:25;10.70;99.90
4651;DHT22;2338;49.602;8.722;2023-11-21T16:30:11;10.70;99.90
4651;DHT22;2338;49.602;8.722;2023-11-21T16:32:57;10.80;99.90
4651;DHT22;2338;49.602;8.722;2023-11-21T16:35:43;10.80;99.90
4651;DHT22;2338;49.602;8.722;2023-11-21T16:38:31;10.80;99.90
4651;DHT22;2338;49.602;8.722;2023-11-21T16:41:17;10.80;99.90
4651;DHT22;2338;49.602;8.722;2023-11-21T16:44:05;10.80;99.90
4651;DHT22;2338;49.602;8.722;2023-11-21T16:46:51;10.80;99.90
4651;DHT22;2338;49.602;8.722;2023-11-21T16:49:38;10.80;99.90
4651;DHT22;2338;49.602;8.722;2023-11-21T16:52:24;10.80;99.90
4651;DHT22;2338;49.602;8.722;2023-11-21T16:55:10;10.70;99.90
4651;DHT22;2338;49.602;8.722;2023-11-21T16:57:57;10.80;99.90
4651;DHT22;2338;49.602;8.722;2023-11-21T17:00:44;10.80;99.90
4651;DHT22;2338;49.602;8.722;2023-11-21T17:03:31;10.80;99.90
4651;DHT22;2338;49.602;8.722;2023-11-21T17:06:17;10.80;99.90
4651;DHT22;2338;49.602;8.722;2023-11-21T17:09:03;10.80;99.90
4651;DHT22;2338;49.602;8.722;2023-11-21T17:11:49;10.80;99.90
4651;DHT22;2338;49.602;8.722;2023-11-21T17:14:35;10.80;99.90
4651;DHT22;2338;49.602;8.722;2023-11-21T17:17:24;10.80;99.90
4651;DHT22;2338;49.602;8.722;2023-11-21T17:20:11;10.80;99.90
4651;DHT22;2338;49.602;8.722;2023-11-21T17:22:57;10.80;99.90
4651;DHT22;2338;49.602;8.722;2023-11-21T17:25:43;10.80;99.90
4651;DHT22;2338;49.602;8.722;2023-11-21T17:28:29;10.80;99.90
4651;DHT22;2338;49.602;8.722;2023-11-21T17:31:15;10.80;99.90
4651;DHT22;2338;49.602;8.722;2023-11-21T17:34:03;10.80;99.90
4651;DHT22;2338;49.602;8.722;2023-11-21T17:36:48;10.80;99.90
4651;DHT22;2338;49.602;8.722;2023-11-21T17:39:34;10.70;99.90
4651;DHT22;2338;49.602;8.722;2023-11-21T17:42:20;10.70;99.90
4651;DHT22;2338;49.602;8.722;2023-11-21T17:45:06;10.70;99.90
4651;DHT22;2338;49.602;8.722;2023-11-21T17:47:52;10.70;99.90
4651;DHT22;2338;49.602;8.722;2023-11-21T17:50:39;10.60;99.90
4651;DHT22;2338;49.602;8.722;2023-11-21T17:53:25;10.60;99.90
4651;DHT22;2338;49.602;8.722;2023-11-21T17:56:13;10.60;99.90
4651;DHT22;2338;49.602;8.722;2023-11-21T17:58:59;10.60;99.90
4651;DHT22;2338;49.602;8.722;2023-11-21T18:01:46;10.50;99.90
4651;DHT22;2338;49.602;8.722;2023-11-21T18:04:32;10.40;99.90
4651;DHT22;2338;49.602;8.722;2023-11-21T18:07:20;10.40;99.90
4651;DHT22;2338;49.602;8.722;2023-11-21T18:10:07;10.40;99.90
4651;DHT22;2338;49.602;8.722;2023-11-21T18:12:53;10.40;99.90
4651;DHT22;2338;49.602;8.722;2023-11-21T18:15:39;10.40;99.90
4651;DHT22;2338;49.602;8.722;2023-11-21T18:18:24;10.40;99.90
4651;DHT22;2338;49.602;8.722;2023-11-21T18:21:11;10.30;99.90
4651;DHT22;2338;49.602;8.722;2023-11-21T18:23:58;10.30;99.90
4651;DHT22;2338;49.602;8.722;2023-11-21T18:26:44;10.30;99.90
4651;DHT22;2338;49.602;8.722;2023-11-21T18:29:30;10.30;99.90
4651;DHT22;2338;49.602;8.722;2023-11-21T18:32:15;10.30;99.90
4651;DHT22;2338;49.602;8.722;2023-11-21T18:35:01;10.30;99.90
4651;DHT22;2338;49.602;8.722;2023-11-21T18:37:47;10.40;99.90
4651;DHT22;2338;49.602;8.722;2023-11-21T18:40:34;10.40;99.90
4651;DHT22;2338;49.602;8.722;2023-11-21T18:43:20;10.30;99.90
4651;DHT22;2338;49.602;8.722;2023-11-21T18:46:06;10.30;99.90
4651;DHT22;2338;49.602;8.722;2023-11-21T18:48:51;10.30;99.90
4651;DHT22;2338;49.602;8.722;2023-11-21T18:51:37;10.20;99.90
4651;DHT22;2338;49.602;8.722;2023-11-21T18:54:23;10.20;99.90
4651;DHT22;2338;49.602;8.722;2023-11-21T18:57:10;10.20;99.90
4651;DHT22;2338;49.602;8.722;2023-11-21T18:59:56;10.20;99.90
4651;DHT22;2338;49.602;8.722;2023-11-21T19:02:42;10.20;99.90
4651;DHT22;2338;49.602;8.722;2023-11-21T19:05:28;10.20;99.90
4651;DHT22;2338;49.602;8.722;2023-11-21T19:08:13;10.20;99.90
4651;DHT22;2338;49.602;8.722;2023-11-21T19:10:59;10.10;99.90
4651;DHT22;2338;49.602;8.722;2023-11-21T19:13:46;10.10;99.90
4651;DHT22;2338;49.602;8.722;2023-11-21T19:16:32;10.10;99.90
4651;DHT22;2338;49.602;8.722;2023-11-21T19:19:17;10.00;99.90
4651;DHT22;2338;49.602;8.722;2023-11-21T19:22:04;10.00;99.90
4651;DHT22;2338;49.602;8.722;2023-11-21T19:24:49;10.00;99.90
4651;DHT22;2338;49.602;8.722;2023-11-21T19:27:35;10.10;99.90
4651;DHT22;2338;49.602;8.722;2023-11-21T19:30:22;10.10;99.90
4651;DHT22;2338;49.602;8.722;2023-11-21T19:33:08;10.10;99.90
4651;DHT22;2338;49.602;8.722;2023-11-21T19:35:55;10.00;99.90
4651;DHT22;2338;49.602;8.722;2023-11-21T19:38:40;10.00;99.90
4651;DHT22;2338;49.602;8.722;2023-11-21T19:41:26;10.10;99.90
4651;DHT22;2338;49.602;8.722;2023-11-21T19:44:12;10.10;99.90
4651;DHT22;2338;49.602;8.722;2023-11-21T19:47:00;10.20;99.90
4651;DHT22;2338;49.602;8.722;2023-11-21T19:49:46;10.10;99.90
4651;DHT22;2338;49.602;8.722;2023-11-21T19:52:31;10.10;99.90
4651;DHT22;2338;49.602;8.722;2023-11-21T19:55:19;10.10;99.90
4651;DHT22;2338;49.602;8.722;2023-11-21T19:58:05;10.10;99.90
4651;DHT22;2338;49.602;8.722;2023-11-21T20:00:51;10.10;99.90
4651;DHT22;2338;49.602;8.722;2023-11-21T20:03:38;10.10;99.90